Time;durP1;ratioP1;P1;durP2;ratioP2;P2;SDS_P1;SDS_P2;PMS_P1;PMS_P2;Temp;Humidity;BMP_temperature;BMP_pressure;BME280_temperature;BME280_humidity;BME280_pressure;Samples;Min_cycle;Max_cycle;Signal;HPM_P1;HPM_P2
2023/12/02 00:01:01;;;;;;;37.40;30.37;;;3.80;99.90;;;;;;10313468;28;20207;-76
2023/12/02 00:06:05;;;;;;;38.97;31.07;;;3.80;99.90;;;;;;10310346;28;20767;-78
2023/12/02 00:11:07;;;;;;;38.77;29.90;;;3.70;99.90;;;;;;10318476;28;20261;-78
2023/12/02 00:16:10;;;;;;;36.17;30.00;;;3.70;99.90;;;;;;10291469;28;20215;-77
2023/12/02 00:21:13;;;;;;;36.17;28.70;;;3.70;99.90;;;;;;10308059;28;20629;-78
2023/12/02 00:26:15;;;;;;;37.17;30.60;;;3.60;99.90;;;;;;10317015;28;20246;-78
2023/12/02 00:31:25;;;;;;;38.40;31.37;;;3.60;99.90;;;;;;10275480;28;20627;-78
2023/12/02 00:36:28;;;;;;;36.23;29.17;;;3.70;99.90;;;;;;10318440;28;20231;-78
2023/12/02 00:41:30;;;;;;;34.90;29.73;;;3.70;99.90;;;;;;10314185;28;20408;-78
2023/12/02 00:46:32;;;;;;;37.73;28.43;;;3.70;99.90;;;;;;10313143;28;20289;-77
2023/12/02 00:51:35;;;;;;;37.87;30.70;;;3.80;99.90;;;;;;10278524;28;20278;-78
2023/12/02 00:56:37;;;;;;;39.00;29.20;;;3.70;99.90;;;;;;10286556;28;20223;-78
2023/12/02 01:01:39;;;;;;;40.27;30.10;;;3.70;99.90;;;;;;10294357;28;20255;-78
2023/12/02 01:06:42;;;;;;;38.90;31.40;;;3.80;99.90;;;;;;10305029;28;20250;-78
2023/12/02 01:11:44;;;;;;;35.80;29.27;;;3.80;99.90;;;;;;10309009;28;20226;-78
2023/12/02 01:16:46;;;;;;;39.40;30.87;;;3.80;99.90;;;;;;10293387;28;20218;-79
2023/12/02 01:21:49;;;;;;;35.10;29.90;;;3.80;99.90;;;;;;10295390;28;20206;-77
2023/12/02 01:26:51;;;;;;;35.97;29.90;;;3.70;99.90;;;;;;10315151;28;20230;-78
2023/12/02 01:31:53;;;;;;;35.57;29.37;;;3.70;99.90;;;;;;10295194;28;20333;-78
2023/12/02 01:36:56;;;;;;;34.87;28.60;;;3.70;99.90;;;;;;10300510;28;20234;-78
2023/12/02 01:41:58;;;;;;;36.03;28.70;;;3.70;99.90;;;;;;10295900;28;20569;-78
2023/12/02 01:47:00;;;;;;;35.83;30.37;;;3.60;99.90;;;;;;10296964;28;20227;-78
2023/12/02 01:52:04;;;;;;;34.03;29.00;;;3.60;99.90;;;;;;10290448;28;20288;-78
2023/12/02 01:57:07;;;;;;;38.93;31.20;;;3.60;99.90;;;;;;10300595;28;20744;-78
2023/12/02 02:02:09;;;;;;;35.77;29.03;;;3.60;99.90;;;;;;10281165;28;20522;-78
2023/12/02 02:07:12;;;;;;;38.37;31.47;;;3.60;99.90;;;;;;10288747;28;20267;-78
2023/12/02 02:12:14;;;;;;;37.27;30.00;;;3.70;99.90;;;;;;10284326;28;20258;-77
2023/12/02 02:17:16;;;;;;;34.50;27.60;;;3.60;99.90;;;;;;10312155;28;20223;-78
2023/12/02 02:22:20;;;;;;;37.17;29.80;;;3.60;99.90;;;;;;10323407;28;20665;-77
2023/12/02 02:27:22;;;;;;;34.37;29.17;;;3.60;99.90;;;;;;10296941;28;20223;-78
2023/12/02 02:32:23;;;;;;;36.00;29.63;;;3.70;99.90;;;;;;10297232;28;20264;-78
2023/12/02 02:37:27;;;;;;;34.47;29.00;;;3.70;99.90;;;;;;10314749;28;20646;-78
2023/12/02 02:42:28;;;;;;;36.70;28.93;;;3.60;99.90;;;;;;10296414;28;20224;-78
2023/12/02 02:47:30;;;;;;;32.50;26.77;;;3.60;99.90;;;;;;10290906;28;20207;-78
2023/12/02 02:52:33;;;;;;;32.97;28.70;;;3.60;99.90;;;;;;10296734;28;20196;-78
2023/12/02 02:57:35;;;;;;;32.97;28.03;;;3.60;99.90;;;;;;10302583;28;20251;-78
2023/12/02 03:02:37;;;;;;;33.77;27.10;;;3.60;99.90;;;;;;10297382;28;20281;-77
2023/12/02 03:07:40;;;;;;;36.47;29.80;;;3.60;99.90;;;;;;10297413;28;20278;-78
2023/12/02 03:12:42;;;;;;;32.20;27.47;;;3.60;99.90;;;;;;10298802;28;20212;-78
2023/12/02 03:17:44;;;;;;;34.90;28.90;;;3.50;99.90;;;;;;10280203;28;20203;-78
2023/12/02 03:22:47;;;;;;;38.07;30.70;;;3.50;99.90;;;;;;10300258;28;20234;-78
2023/12/02 03:27:49;;;;;;;32.43;26.47;;;3.50;99.90;;;;;;10300080;28;20740;-78
2023/12/02 03:32:51;;;;;;;35.13;28.40;;;3.40;99.90;;;;;;10322449;28;20297;-78
2023/12/02 03:37:54;;;;;;;35.97;30.90;;;3.30;99.90;;;;;;10307819;28;20283;-78
2023/12/02 03:42:56;;;;;;;36.13;29.87;;;3.30;99.90;;;;;;10315914;28;20309;-78
2023/12/02 03:47:58;;;;;;;34.20;27.17;;;3.30;99.90;;;;;;10290855;28;20204;-78
2023/12/02 03:53:01;;;;;;;31.90;27.07;;;3.20;99.90;;;;;;10285409;28;20721;-78
2023/12/02 03:58:03;;;;;;;34.30;27.60;;;3.20;99.90;;;;;;10285680;28;20268;-78
2023/12/02 04:03:05;;;;;;;35.67;28.87;;;3.10;99.90;;;;;;10281933;28;20261;-78
2023/12/02 04:08:09;;;;;;;33.23;28.53;;;3.10;99.90;;;;;;10291241;28;20744;-78
2023/12/02 04:13:11;;;;;;;34.40;28.40;;;3.10;99.90;;;;;;10293031;28;20724;-78
2023/12/02 04:18:13;;;;;;;31.27;26.40;;;3.10;99.90;;;;;;10291549;28;20303;-78
2023/12/02 04:23:16;;;;;;;28.83;25.70;;;3.10;99.90;;;;;;10293324;28;20784;-79
2023/12/02 04:28:18;;;;;;;29.47;25.60;;;3.00;99.90;;;;;;10292947;28;20200;-78
2023/12/02 04:33:20;;;;;;;31.00;24.93;;;3.00;99.90;;;;;;10294965;28;20215;-78
2023/12/02 04:38:23;;;;;;;27.40;23.67;;;3.00;99.90;;;;;;10293783;28;20677;-78
2023/12/02 04:43:25;;;;;;;26.97;23.80;;;3.00;99.90;;;;;;10291159;28;20286;-78
2023/12/02 04:48:27;;;;;;;25.03;22.33;;;2.90;99.90;;;;;;10290462;28;20595;-78
2023/12/02 04:53:30;;;;;;;26.00;22.33;;;2.90;99.90;;;;;;10288379;28;20208;-76
2023/12/02 04:58:32;;;;;;;27.00;23.97;;;3.00;99.90;;;;;;10287727;28;20749;-76
2023/12/02 05:03:34;;;;;;;25.77;22.23;;;3.00;99.90;;;;;;10287510;28;20291;-77
2023/12/02 05:08:38;;;;;;;24.83;22.17;;;3.00;99.90;;;;;;10289624;28;20204;-78
2023/12/02 05:13:40;;;;;;;25.97;23.00;;;3.00;99.90;;;;;;10290363;28;20701;-79
2023/12/02 05:18:42;;;;;;;25.97;23.27;;;3.00;99.90;;;;;;10289530;28;20212;-78
2023/12/02 05:23:45;;;;;;;28.53;24.20;;;2.90;99.90;;;;;;10290171;28;20233;-78
2023/12/02 05:28:47;;;;;;;24.80;22.10;;;2.90;99.90;;;;;;10288372;28;20610;-76
2023/12/02 05:33:49;;;;;;;25.27;22.57;;;3.00;99.90;;;;;;10290361;28;20219;-78
2023/12/02 05:38:53;;;;;;;24.17;21.57;;;3.00;99.90;;;;;;10291309;28;20291;-77
2023/12/02 05:43:54;;;;;;;24.90;22.23;;;2.90;99.90;;;;;;10292843;28;20231;-77
2023/12/02 05:48:56;;;;;;;25.87;21.37;;;2.90;99.90;;;;;;10294713;28;20251;-78
2023/12/02 05:54:00;;;;;;;23.50;20.97;;;2.90;99.90;;;;;;10288924;28;20258;-77
2023/12/02 05:59:02;;;;;;;23.70;21.20;;;2.90;99.90;;;;;;10287826;28;20727;-77
2023/12/02 06:04:04;;;;;;;22.90;20.27;;;2.90;99.90;;;;;;10285944;28;20697;-77
2023/12/02 06:09:08;;;;;;;24.10;21.60;;;2.90;99.90;;;;;;10287184;28;20606;-78
2023/12/02 06:14:10;;;;;;;23.07;20.67;;;2.90;99.90;;;;;;10288769;28;20220;-77
2023/12/02 06:19:12;;;;;;;20.53;18.57;;;2.80;99.90;;;;;;10270291;28;20204;-77
2023/12/02 06:24:15;;;;;;;22.53;20.13;;;2.80;99.90;;;;;;10287195;28;20263;-77
2023/12/02 06:29:17;;;;;;;22.10;19.30;;;2.80;99.90;;;;;;10291544;28;20223;-78
2023/12/02 06:34:19;;;;;;;23.67;20.90;;;2.90;99.90;;;;;;10268302;28;20228;-78
2023/12/02 06:39:22;;;;;;;24.90;20.50;;;2.90;99.90;;;;;;10270375;28;20222;-78
2023/12/02 06:44:25;;;;;;;22.93;20.70;;;2.90;99.90;;;;;;10294923;28;20231;-78
2023/12/02 06:49:27;;;;;;;25.63;22.87;;;2.90;99.90;;;;;;10295035;28;20200;-78
2023/12/02 06:54:30;;;;;;;25.50;22.70;;;2.80;99.90;;;;;;10293726;28;20216;-77
2023/12/02 06:59:33;;;;;;;24.20;21.60;;;2.80;99.90;;;;;;10293784;28;20208;-77
2023/12/02 07:04:34;;;;;;;24.60;22.00;;;2.70;99.90;;;;;;10292326;28;20232;-77
2023/12/02 07:09:38;;;;;;;25.50;21.80;;;2.70;99.90;;;;;;10295118;28;20200;-78
2023/12/02 07:14:39;;;;;;;24.23;21.73;;;2.70;99.90;;;;;;10292419;28;20208;-77
2023/12/02 07:19:41;;;;;;;26.03;21.30;;;2.70;99.90;;;;;;10293378;28;20251;-78
2023/12/02 07:24:44;;;;;;;24.27;21.70;;;2.70;99.90;;;;;;10292924;28;20296;-77
2023/12/02 07:29:46;;;;;;;25.87;21.60;;;2.60;99.90;;;;;;10290096;28;20208;-77
2023/12/02 07:34:48;;;;;;;24.93;22.23;;;2.60;99.90;;;;;;10280724;28;20574;-77
2023/12/02 07:39:51;;;;;;;24.67;21.37;;;2.60;99.90;;;;;;10258886;28;20192;-78
2023/12/02 07:44:53;;;;;;;25.43;22.03;;;2.60;99.90;;;;;;10292648;28;20373;-77
2023/12/02 07:49:55;;;;;;;23.90;21.20;;;2.50;99.90;;;;;;10289538;28;20254;-77
2023/12/02 07:54:58;;;;;;;23.77;21.33;;;2.50;99.90;;;;;;10291125;28;20212;-78
2023/12/02 08:00:00;;;;;;;23.00;20.17;;;2.50;99.90;;;;;;10292954;28;20211;-78
2023/12/02 08:05:02;;;;;;;22.57;17.37;;;2.50;99.90;;;;;;10290896;28;20227;-77
2023/12/02 08:10:07;;;;;;;22.90;19.60;;;2.50;99.90;;;;;;10292567;28;20200;-77
2023/12/02 08:15:10;;;;;;;21.87;19.60;;;2.50;99.90;;;;;;10292143;28;20247;-77
2023/12/02 08:20:12;;;;;;;22.73;20.30;;;2.50;99.90;;;;;;10291878;28;20340;-78
2023/12/02 08:25:15;;;;;;;23.50;20.60;;;2.50;99.90;;;;;;10291724;28;20224;-78
2023/12/02 08:30:17;;;;;;;22.67;19.90;;;2.50;99.90;;;;;;10274038;28;20202;-78
2023/12/02 08:35:19;;;;;;;23.63;21.10;;;2.50;99.90;;;;;;10291385;28;20885;-78
2023/12/02 08:40:22;;;;;;;24.67;22.00;;;2.60;99.90;;;;;;10295855;28;20204;-78
2023/12/02 08:45:24;;;;;;;23.73;21.20;;;2.60;99.90;;;;;;10288727;28;20227;-78
2023/12/02 08:50:27;;;;;;;23.70;21.20;;;2.60;99.90;;;;;;10288443;28;20215;-78
2023/12/02 08:55:30;;;;;;;23.47;21.00;;;2.60;99.90;;;;;;10289541;28;20710;-77
2023/12/02 09:00:32;;;;;;;25.00;22.30;;;2.60;99.90;;;;;;10288794;28;20218;-78
2023/12/02 09:05:34;;;;;;;25.53;22.77;;;2.60;99.90;;;;;;10286264;28;20234;-78
2023/12/02 09:10:37;;;;;;;28.40;24.60;;;2.60;99.90;;;;;;10287150;28;20768;-77
2023/12/02 09:15:41;;;;;;;24.93;22.20;;;2.70;99.90;;;;;;10255756;28;20226;-78
2023/12/02 09:20:47;;;;;;;26.20;23.40;;;2.60;99.90;;;;;;10287297;28;20693;-78
2023/12/02 09:25:53;;;;;;;23.57;21.13;;;2.60;99.90;;;;;;10267347;28;20230;-77
2023/12/02 09:31:01;;;;;;;22.70;19.57;;;2.70;99.90;;;;;;10286066;28;20204;-77
2023/12/02 09:36:04;;;;;;;23.20;20.70;;;2.70;99.90;;;;;;10285583;28;20231;-77
2023/12/02 09:41:32;;;;;;;22.67;20.27;;;2.60;99.90;;;;;;10286231;28;20288;-77
2023/12/02 09:46:37;;;;;;;21.07;18.87;;;2.70;99.90;;;;;;10271010;28;20235;-75
2023/12/02 09:51:56;;;;;;;20.90;18.70;;;2.60;99.90;;;;;;10286299;28;20566;-75
2023/12/02 09:57:12;;;;;;;22.00;19.80;;;2.60;99.90;;;;;;10288182;28;20697;-78
2023/12/02 10:02:29;;;;;;;22.20;20.00;;;2.70;99.90;;;;;;10274361;28;20199;-76
2023/12/02 10:07:42;;;;;;;21.40;19.40;;;2.60;99.90;;;;;;10295837;28;20226;-78
2023/12/02 10:12:59;;;;;;;22.40;19.47;;;2.70;99.90;;;;;;10294452;28;20648;-78
2023/12/02 10:18:06;;;;;;;21.87;19.63;;;2.70;99.90;;;;;;10292263;28;20696;-78
2023/12/02 10:23:17;;;;;;;20.40;18.03;;;2.60;99.90;;;;;;10295315;28;20231;-78
2023/12/02 10:28:27;;;;;;;20.23;18.17;;;2.60;99.90;;;;;;10278403;28;20445;-77
2023/12/02 10:33:40;;;;;;;19.40;17.50;;;2.60;99.90;;;;;;10296797;28;20239;-78
2023/12/02 10:38:56;;;;;;;19.93;17.90;;;2.60;99.90;;;;;;10296411;28;20615;-78
2023/12/02 10:44:06;;;;;;;21.73;19.43;;;2.60;99.90;;;;;;10301116;28;20270;-78
2023/12/02 10:49:10;;;;;;;20.63;18.50;;;2.60;99.90;;;;;;10296833;28;20204;-78
2023/12/02 10:54:15;;;;;;;21.40;19.10;;;2.60;99.90;;;;;;10287069;28;20238;-78
2023/12/02 10:59:22;;;;;;;20.23;18.13;;;2.60;99.90;;;;;;10292761;28;20254;-78
2023/12/02 11:04:30;;;;;;;20.47;18.37;;;2.60;99.90;;;;;;10292885;28;20219;-77
2023/12/02 11:09:37;;;;;;;20.13;17.90;;;2.70;99.90;;;;;;10293503;28;20235;-78
2023/12/02 11:14:43;;;;;;;19.17;17.10;;;2.70;99.90;;;;;;10291614;28;21106;-78
2023/12/02 11:20:08;;;;;;;20.97;18.77;;;2.80;99.90;;;;;;10291105;28;20211;-77
2023/12/02 11:25:26;;;;;;;18.30;16.40;;;2.90;99.90;;;;;;10288727;28;20275;-77
2023/12/02 11:30:48;;;;;;;19.20;16.40;;;2.90;99.90;;;;;;10290823;28;20938;-77
2023/12/02 11:35:59;;;;;;;16.00;14.47;;;2.90;99.90;;;;;;10291446;28;20220;-77
2023/12/02 11:41:18;;;;;;;16.33;14.73;;;2.80;99.90;;;;;;10217687;28;20220;-76
2023/12/02 11:46:24;;;;;;;17.63;15.80;;;2.80;99.90;;;;;;10288821;28;20223;-77
2023/12/02 11:51:39;;;;;;;17.10;15.47;;;2.80;99.90;;;;;;10286841;28;20204;-77
2023/12/02 11:56:50;;;;;;;15.17;13.37;;;2.90;99.90;;;;;;10286974;28;20263;-77
2023/12/02 12:02:07;;;;;;;15.87;14.27;;;2.80;99.90;;;;;;10284327;28;20652;-77
2023/12/02 12:07:20;;;;;;;14.73;13.33;;;2.80;99.90;;;;;;10280029;28;20224;-77
2023/12/02 12:12:26;;;;;;;13.93;12.47;;;2.80;99.90;;;;;;10285393;28;20199;-75
2023/12/02 12:17:29;;;;;;;14.00;12.60;;;2.90;99.90;;;;;;10286462;28;20631;-76
2023/12/02 12:22:31;;;;;;;16.10;14.40;;;2.90;99.90;;;;;;10269147;28;20200;-76
2023/12/02 12:27:34;;;;;;;15.10;13.70;;;2.90;99.90;;;;;;10254993;28;20616;-76
2023/12/02 12:32:38;;;;;;;13.00;11.80;;;2.90;99.90;;;;;;10274980;28;20222;-76
2023/12/02 12:37:41;;;;;;;16.87;14.60;;;2.90;99.90;;;;;;10265529;28;20200;-74
2023/12/02 12:42:50;;;;;;;12.93;11.63;;;2.90;99.90;;;;;;10268907;28;20228;-76
2023/12/02 12:47:55;;;;;;;13.20;12.03;;;2.80;99.90;;;;;;10286140;28;20637;-76
2023/12/02 12:53:02;;;;;;;13.10;11.90;;;2.80;99.90;;;;;;10268935;28;20609;-76
2023/12/02 12:58:07;;;;;;;12.80;11.70;;;2.80;99.90;;;;;;10285070;28;20348;-76
2023/12/02 13:03:28;;;;;;;14.27;12.80;;;2.70;99.90;;;;;;10284278;28;20246;-75
2023/12/02 13:08:34;;;;;;;14.20;12.83;;;2.70;99.90;;;;;;10267823;28;20597;-75
2023/12/02 13:13:39;;;;;;;14.27;12.87;;;2.70;99.90;;;;;;10279048;28;20311;-74
2023/12/02 13:18:43;;;;;;;14.90;13.40;;;2.70;99.90;;;;;;10283458;28;20749;-76
2023/12/02 13:23:50;;;;;;;14.90;13.40;;;2.70;99.90;;;;;;10285915;28;20228;-75
2023/12/02 13:28:53;;;;;;;13.77;12.57;;;2.60;99.90;;;;;;10284922;28;20612;-75
2023/12/02 13:34:01;;;;;;;13.80;12.37;;;2.60;99.90;;;;;;10294166;28;20232;-76
2023/12/02 13:39:05;;;;;;;14.83;13.17;;;2.50;99.90;;;;;;10296118;28;20224;-75
2023/12/02 13:44:11;;;;;;;13.00;11.80;;;2.50;99.90;;;;;;10282614;28;20416;-76
2023/12/02 13:49:17;;;;;;;14.10;12.90;;;2.50;99.90;;;;;;10280886;28;20685;-76
2023/12/02 13:54:32;;;;;;;12.20;11.13;;;2.40;99.90;;;;;;10279857;28;20772;-76
2023/12/02 13:59:42;;;;;;;11.60;10.60;;;2.50;99.90;;;;;;10291302;28;20223;-76
2023/12/02 14:05:01;;;;;;;11.00;10.00;;;2.40;99.90;;;;;;10280330;28;20719;-75
2023/12/02 14:10:06;;;;;;;13.00;11.70;;;2.30;99.90;;;;;;10286503;28;20208;-76
2023/12/02 14:15:27;;;;;;;13.73;12.47;;;2.30;99.90;;;;;;10277561;28;20311;-74
2023/12/02 14:20:37;;;;;;;12.23;11.13;;;2.20;99.90;;;;;;10288311;28;20274;-77
2023/12/02 14:26:00;;;;;;;14.13;12.83;;;2.20;99.90;;;;;;10262764;28;20701;-79
2023/12/02 14:31:10;;;;;;;13.30;12.10;;;2.20;99.90;;;;;;10272303;28;20216;-76
2023/12/02 14:36:26;;;;;;;13.83;12.57;;;2.20;99.90;;;;;;10283103;28;20732;-77
2023/12/02 14:41:47;;;;;;;16.53;14.97;;;2.10;99.90;;;;;;10274783;28;20282;-78
2023/12/02 14:47:01;;;;;;;15.70;14.20;;;2.10;99.90;;;;;;10287953;28;20224;-77
2023/12/02 14:52:07;;;;;;;17.13;15.33;;;2.10;99.90;;;;;;10316485;28;20208;-76
2023/12/02 14:57:15;;;;;;;16.50;14.87;;;2.10;99.90;;;;;;10278243;28;20319;-77
2023/12/02 15:02:36;;;;;;;17.33;15.63;;;2.10;99.90;;;;;;10283165;28;20793;-77
2023/12/02 15:07:45;;;;;;;16.80;15.30;;;2.10;99.90;;;;;;10280875;28;20212;-76
2023/12/02 15:12:48;;;;;;;18.27;16.37;;;2.10;99.90;;;;;;10289811;28;20229;-76
2023/12/02 15:17:51;;;;;;;16.00;14.40;;;2.10;99.90;;;;;;10281828;28;20228;-76
2023/12/02 15:23:37;;;;;;;15.03;13.63;;;2.10;99.90;;;;;;10266958;28;20227;-76
2023/12/02 15:28:48;;;;;;;15.50;14.00;;;2.10;99.90;;;;;;10284577;28;20220;-77
2023/12/02 15:33:53;;;;;;;15.87;14.13;;;2.00;99.90;;;;;;10274273;28;20242;-77
2023/12/02 15:38:57;;;;;;;14.60;13.20;;;2.10;99.90;;;;;;10274484;28;20228;-76
2023/12/02 15:43:59;;;;;;;15.30;13.70;;;2.00;99.90;;;;;;10283294;28;20234;-76
2023/12/02 15:49:02;;;;;;;14.00;12.77;;;2.00;99.90;;;;;;10303241;28;20277;-75
2023/12/02 15:54:10;;;;;;;14.07;12.67;;;2.00;99.90;;;;;;10267618;28;20852;-75
2023/12/02 15:59:14;;;;;;;14.07;12.77;;;2.00;99.90;;;;;;10268434;28;20666;-76
2023/12/02 16:04:16;;;;;;;24.70;19.07;;;1.90;99.90;;;;;;10305086;28;20223;-76
2023/12/02 16:09:21;;;;;;;42.57;26.77;;;1.90;99.90;;;;;;10297626;28;20223;-76
2023/12/02 16:14:23;;;;;;;17.90;14.93;;;1.90;99.90;;;;;;10280557;28;20326;-78
2023/12/02 16:19:25;;;;;;;13.97;12.70;;;1.90;99.90;;;;;;10295710;28;20200;-77
2023/12/02 16:24:29;;;;;;;13.00;11.80;;;1.90;99.90;;;;;;10299662;28;20258;-76
2023/12/02 16:29:30;;;;;;;13.47;12.17;;;1.90;99.90;;;;;;10310815;28;20231;-76
2023/12/02 16:34:33;;;;;;;13.77;12.40;;;1.80;99.90;;;;;;10301821;28;20735;-78
2023/12/02 16:39:37;;;;;;;14.77;13.37;;;1.80;99.90;;;;;;10308042;28;20199;-78
2023/12/02 16:44:39;;;;;;;16.47;12.90;;;1.80;99.90;;;;;;10300864;28;20223;-77
2023/12/02 16:49:41;;;;;;;14.10;12.80;;;1.80;99.90;;;;;;10316902;28;20231;-76
2023/12/02 16:54:44;;;;;;;14.70;13.07;;;1.90;99.90;;;;;;10315818;28;20231;-76
2023/12/02 16:59:49;;;;;;;12.70;11.50;;;1.90;99.90;;;;;;10297111;28;20222;-78
2023/12/02 17:04:51;;;;;;;12.23;11.23;;;1.90;99.90;;;;;;10289236;28;20230;-78
2023/12/02 17:09:54;;;;;;;14.83;13.37;;;1.90;99.90;;;;;;10275491;28;20270;-78
2023/12/02 17:15:05;;;;;;;13.90;12.63;;;1.80;99.90;;;;;;10293182;28;20267;-79
2023/12/02 17:20:14;;;;;;;14.57;13.07;;;1.80;99.90;;;;;;10294541;28;20250;-77
2023/12/02 17:25:46;;;;;;;14.57;13.07;;;1.90;99.90;;;;;;10312803;28;20254;-77
2023/12/02 17:30:48;;;;;;;14.13;12.83;;;1.90;99.90;;;;;;10293862;28;20274;-77
2023/12/02 17:35:50;;;;;;;13.60;12.30;;;1.90;99.90;;;;;;10293255;28;20235;-77
2023/12/02 17:40:53;;;;;;;15.43;13.93;;;1.80;99.90;;;;;;10294757;28;20933;-77
2023/12/02 17:45:57;;;;;;;16.83;13.70;;;1.90;99.90;;;;;;10294586;28;20318;-76
2023/12/02 17:50:59;;;;;;;15.63;14.13;;;1.90;99.90;;;;;;10295733;28;21120;-77
2023/12/02 17:56:02;;;;;;;14.53;13.07;;;1.90;99.90;;;;;;10296557;28;20223;-77
2023/12/02 18:01:04;;;;;;;14.73;13.30;;;1.90;99.90;;;;;;10295292;28;20215;-76
2023/12/02 18:06:07;;;;;;;14.37;13.07;;;1.90;99.90;;;;;;10287891;28;20258;-78
2023/12/02 18:11:10;;;;;;;14.73;13.27;;;1.90;99.90;;;;;;10289572;28;20214;-78
2023/12/02 18:16:12;;;;;;;16.83;15.13;;;1.80;99.90;;;;;;10305549;28;20219;-76
2023/12/02 18:21:14;;;;;;;16.10;14.50;;;1.80;99.90;;;;;;10290449;28;20614;-77
2023/12/02 18:26:17;;;;;;;15.73;14.27;;;1.80;99.90;;;;;;10296610;28;20624;-78
2023/12/02 18:31:19;;;;;;;17.33;15.20;;;1.80;99.90;;;;;;10301382;28;20321;-78
2023/12/02 18:36:20;;;;;;;17.27;14.87;;;1.80;99.90;;;;;;10283363;28;20232;-78
2023/12/02 18:41:24;;;;;;;16.70;15.10;;;1.80;99.90;;;;;;10300762;28;20227;-77
2023/12/02 18:46:26;;;;;;;14.27;12.97;;;1.80;99.90;;;;;;10282791;28;20227;-75
2023/12/02 18:51:28;;;;;;;14.13;12.37;;;1.70;99.90;;;;;;10296763;28;20756;-77
2023/12/02 18:56:31;;;;;;;14.17;12.87;;;1.70;99.90;;;;;;10304194;28;20275;-77
2023/12/02 19:01:33;;;;;;;13.90;12.60;;;1.70;99.90;;;;;;10300617;28;20505;-77
2023/12/02 19:06:35;;;;;;;14.40;13.00;;;1.70;99.90;;;;;;10304960;28;20223;-77
2023/12/02 19:11:39;;;;;;;13.47;12.20;;;1.70;99.90;;;;;;10291181;28;20257;-77
2023/12/02 19:16:41;;;;;;;12.77;11.47;;;1.60;99.90;;;;;;10320898;28;20370;-78
2023/12/02 19:21:43;;;;;;;13.03;11.73;;;1.60;99.90;;;;;;10304161;28;20203;-79
2023/12/02 19:26:46;;;;;;;12.00;10.90;;;1.60;99.90;;;;;;10306510;28;20223;-80
2023/12/02 19:31:48;;;;;;;13.30;11.33;;;1.60;99.90;;;;;;10301670;28;20203;-79
2023/12/02 19:36:52;;;;;;;11.77;10.57;;;1.60;99.90;;;;;;10320814;28;20646;-80
2023/12/02 19:41:55;;;;;;;11.90;10.80;;;1.60;99.90;;;;;;10301007;28;20766;-80
2023/12/02 19:46:57;;;;;;;12.53;11.23;;;1.60;99.90;;;;;;10309703;28;20235;-80
2023/12/02 19:51:59;;;;;;;11.60;10.50;;;1.60;99.90;;;;;;10290987;28;20266;-79
2023/12/02 19:57:03;;;;;;;10.97;9.93;;;1.60;99.90;;;;;;10322963;28;20604;-79
2023/12/02 20:02:05;;;;;;;12.53;10.30;;;1.60;99.90;;;;;;10280704;28;20331;-79
2023/12/02 20:07:07;;;;;;;10.73;9.73;;;1.60;99.20;;;;;;10303290;28;20234;-80
2023/12/02 20:12:11;;;;;;;10.27;9.27;;;1.60;99.90;;;;;;10311783;28;20203;-80
2023/12/02 20:17:13;;;;;;;10.17;9.20;;;1.60;99.90;;;;;;10294457;28;20223;-79
2023/12/02 20:22:15;;;;;;;10.73;9.77;;;1.60;99.60;;;;;;10313123;28;20303;-80
2023/12/02 20:27:19;;;;;;;11.77;10.67;;;1.50;99.90;;;;;;10313515;28;20232;-80
2023/12/02 20:32:21;;;;;;;11.00;10.00;;;1.60;99.90;;;;;;10307386;28;20208;-80
2023/12/02 20:37:22;;;;;;;10.63;9.63;;;1.60;99.90;;;;;;10321036;28;20192;-79
2023/12/02 20:42:26;;;;;;;10.80;9.70;;;1.60;99.90;;;;;;10291776;28;20818;-80
2023/12/02 20:47:28;;;;;;;11.47;10.37;;;1.70;99.90;;;;;;10317629;28;20231;-77
2023/12/02 20:52:30;;;;;;;13.57;11.23;;;1.70;99.90;;;;;;10298272;28;20567;-80
2023/12/02 20:57:33;;;;;;;12.20;11.10;;;1.70;99.90;;;;;;10309872;28;20208;-80
2023/12/02 21:02:35;;;;;;;11.77;10.57;;;1.80;99.90;;;;;;10292294;28;20657;-78
2023/12/02 21:07:37;;;;;;;12.97;11.60;;;1.80;99.90;;;;;;10317261;28;20215;-78
2023/12/02 21:12:42;;;;;;;10.73;9.53;;;1.70;99.90;;;;;;10310052;28;20199;-80
2023/12/02 21:17:45;;;;;;;11.37;10.27;;;1.70;99.90;;;;;;10310843;28;20200;-80
2023/12/02 21:22:47;;;;;;;11.60;10.50;;;1.80;99.90;;;;;;10312446;28;20219;-78
2023/12/02 21:27:50;;;;;;;13.03;11.77;;;1.80;99.90;;;;;;10293611;28;20277;-78
2023/12/02 21:32:55;;;;;;;12.73;11.53;;;1.70;99.90;;;;;;10278512;28;20293;-77
2023/12/02 21:37:57;;;;;;;13.40;12.10;;;1.80;99.90;;;;;;10297661;28;20204;-79
2023/12/02 21:43:03;;;;;;;13.00;11.70;;;1.80;99.90;;;;;;10313252;28;20226;-78
2023/12/02 21:48:05;;;;;;;12.30;11.00;;;1.80;99.90;;;;;;10312359;28;20281;-79
2023/12/02 21:53:08;;;;;;;13.00;11.60;;;1.80;99.90;;;;;;10282719;28;20597;-79
2023/12/02 21:58:11;;;;;;;13.97;12.57;;;1.80;99.90;;;;;;10313286;28;20577;-78
2023/12/02 22:03:27;;;;;;;14.70;13.20;;;1.80;99.90;;;;;;10298389;28;20348;-80
2023/12/02 22:08:29;;;;;;;14.40;13.10;;;1.80;99.90;;;;;;10298942;28;20711;-79
2023/12/02 22:13:34;;;;;;;15.90;13.73;;;1.80;99.90;;;;;;10314705;28;20223;-79
2023/12/02 22:18:39;;;;;;;14.17;12.67;;;1.90;99.90;;;;;;10312769;28;20259;-80
2023/12/02 22:23:41;;;;;;;15.17;13.60;;;1.80;99.90;;;;;;10313858;28;20302;-79
2023/12/02 22:28:46;;;;;;;14.97;13.40;;;1.80;99.90;;;;;;10296662;28;20263;-78
2023/12/02 22:33:48;;;;;;;14.30;12.80;;;1.80;99.90;;;;;;10292325;28;20580;-77
2023/12/02 22:38:50;;;;;;;12.80;11.50;;;;;;;;;;10312080;28;20207;-78
2023/12/02 22:43:57;;;;;;;14.17;12.70;;;1.90;99.90;;;;;;10316649;28;20230;-76
2023/12/02 22:48:59;;;;;;;14.67;13.10;;;1.90;99.90;;;;;;10317102;28;20226;-76
2023/12/02 22:54:01;;;;;;;14.43;12.90;;;1.90;99.90;;;;;;10313613;28;20223;-78
2023/12/02 22:59:09;;;;;;;14.33;12.87;;;1.90;99.90;;;;;;10286271;28;20244;-77
2023/12/02 23:04:21;;;;;;;14.70;13.30;;;1.90;99.90;;;;;;10281696;28;20765;-78
2023/12/02 23:09:40;;;;;;;16.10;13.77;;;1.90;99.90;;;;;;10291799;28;20266;-79
2023/12/02 23:14:51;;;;;;;14.33;12.90;;;1.90;99.90;;;;;;10291752;28;20226;-79
2023/12/02 23:19:59;;;;;;;12.07;10.97;;;1.90;99.90;;;;;;10303982;28;20203;-80
2023/12/02 23:25:03;;;;;;;12.67;11.33;;;1.80;99.90;;;;;;10323291;28;20223;-79
2023/12/02 23:30:08;;;;;;;13.00;11.67;;;1.80;99.90;;;;;;10323687;28;20315;-79
2023/12/02 23:35:18;;;;;;;12.23;11.10;;;1.80;99.90;;;;;;10291861;28;20279;-79
2023/12/02 23:40:24;;;;;;;13.50;12.20;;;1.80;99.90;;;;;;10324498;28;20192;-80
2023/12/02 23:45:28;;;;;;;14.53;13.03;;;;;;;;;;10287861;28;20236;-79
2023/12/02 23:50:30;;;;;;;13.73;12.33;;;;;;;;;;10325943;28;20683;-79
2023/12/02 23:55:32;;;;;;;12.37;11.13;;;;;;;;;;10286789;28;20271;-78
